Time;durP1;ratioP1;P1;durP2;ratioP2;P2;SDS_P1;SDS_P2;PMS_P1;PMS_P2;Temp;Humidity;BMP_temperature;BMP_pressure;BME280_temperature;BME280_humidity;BME280_pressure;Samples;Min_cycle;Max_cycle;Signal;HPM_P1;HPM_P2
2022/10/30 00:00:12;;;;;;;42.75;5.93;;;;;;;17.41;100.00;96833.41;5100548;28;20079;-45
2022/10/30 00:02:40;;;;;;;5.20;4.50;;;;;;;16.92;100.00;96832.88;5097527;28;20486;-44
2022/10/30 00:05:10;;;;;;;33.30;6.00;;;;;;;17.31;100.00;96822.16;5093362;28;20067;-50
2022/10/30 00:07:38;;;;;;;42.50;5.43;;;;;;;17.22;100.00;96831.19;5095325;28;21405;-42
2022/10/30 00:10:08;;;;;;;39.70;5.68;;;;;;;17.09;100.00;96831.75;5095076;28;20090;-44
2022/10/30 00:12:36;;;;;;;45.45;5.57;;;;;;;17.04;100.00;96826.97;5093206;28;20079;-46
2022/10/30 00:15:05;;;;;;;11.88;4.60;;;;;;;17.13;100.00;96824.25;5100259;28;20079;-44
2022/10/30 00:17:34;;;;;;;4.53;3.92;;;;;;;16.57;100.00;96838.50;5099174;28;20087;-43
2022/10/30 00:20:02;;;;;;;5.40;4.53;;;;;;;16.70;100.00;96829.97;5093379;28;20079;-45
2022/10/30 00:22:32;;;;;;;5.50;4.55;;;;;;;17.17;100.00;96829.06;5096094;28;20560;-48
2022/10/30 00:25:00;;;;;;;9.43;5.90;;;;;;;17.16;100.00;96830.06;5091791;28;20544;-42
2022/10/30 00:27:28;;;;;;;6.35;5.30;;;;;;;17.11;100.00;96835.09;5097842;28;20086;-49
2022/10/30 00:29:56;;;;;;;7.28;4.50;;;;;;;17.04;100.00;96836.81;5097677;28;20082;-42
2022/10/30 00:32:25;;;;;;;6.60;4.57;;;;;;;17.06;100.00;96824.94;5097383;28;20082;-50
2022/10/30 00:34:53;;;;;;;5.82;4.88;;;;;;;16.98;100.00;96824.19;5093825;28;20075;-48
2022/10/30 00:37:21;;;;;;;7.03;5.18;;;;;;;16.94;100.00;96831.69;5096661;28;20076;-46
2022/10/30 00:39:51;;;;;;;5.05;4.45;;;;;;;16.83;100.00;96824.94;5092404;28;20075;-46
2022/10/30 00:42:19;;;;;;;4.73;4.20;;;;;;;16.72;100.00;96827.94;5098471;28;20641;-43
2022/10/30 00:44:49;;;;;;;6.15;4.60;;;;;;;16.53;100.00;96829.19;5098849;28;20117;-47
2022/10/30 00:47:20;;;;;;;6.90;4.90;;;;;;;16.84;100.00;96820.44;5090856;28;20078;-45
2022/10/30 00:49:55;;;;;;;5.72;4.70;;;;;;;16.91;100.00;96823.22;5096612;28;20091;-45
2022/10/30 00:52:26;;;;;;;6.22;4.63;;;;;;;16.89;100.00;96826.06;5092505;28;20101;-46
2022/10/30 00:54:56;;;;;;;;;;;;;;;17.04;100.00;96811.00;5099134;28;20581;-43
2022/10/30 00:57:24;;;;;;;5.68;4.20;;;;;;;16.77;100.00;96819.47;5091222;28;20373;-51
2022/10/30 00:59:52;;;;;;;4.35;3.85;;;;;;;16.83;100.00;96821.44;5100620;28;20083;-44
2022/10/30 01:02:21;;;;;;;4.65;4.20;;;;;;;16.73;100.00;96818.13;5097246;28;20554;-45
2022/10/30 01:04:51;;;;;;;5.75;4.53;;;;;;;16.34;100.00;96817.13;5094999;28;20067;-46
2022/10/30 01:07:19;;;;;;;6.00;4.53;;;;;;;16.54;100.00;96825.53;5099756;28;20094;-49
2022/10/30 01:09:47;;;;;;;5.40;4.40;;;;;;;16.72;100.00;96817.28;5101754;28;20071;-46
2022/10/30 01:12:17;;;;;;;6.63;4.70;;;;;;;16.80;100.00;96811.97;5096613;28;20075;-46
2022/10/30 01:14:49;;;;;;;5.05;4.13;;;;;;;16.40;100.00;96806.78;5092873;28;20074;-44
2022/10/30 01:17:31;;;;;;;3.72;3.42;;;;;;;15.98;100.00;96808.75;5093934;28;20094;-48
2022/10/30 01:20:12;;;;;;;3.72;3.42;;;;;;;16.47;100.00;96811.25;5093449;28;20181;-51
2022/10/30 01:22:52;;;;;;;4.15;3.75;;;;;;;16.75;100.00;96816.16;5097024;28;20071;-45
2022/10/30 01:25:34;;;;;;;4.60;3.70;;;;;;;16.77;100.00;96809.66;5092611;28;20076;-43
2022/10/30 01:28:14;;;;;;;5.30;3.53;;;;;;;16.74;100.00;96811.78;5099245;28;20068;-50
2022/10/30 01:30:50;;;;;;;4.18;3.65;;;;;;;16.58;100.00;96810.84;5098769;28;20464;-48
2022/10/30 01:33:28;;;;;;;6.68;3.83;;;;;;;16.49;100.00;96808.44;5096850;28;20107;-47
2022/10/30 01:36:01;;;;;;;2.90;2.60;;;;;;;16.19;100.00;96808.19;5100609;28;20118;-44
2022/10/30 01:38:33;;;;;;;3.22;2.92;;;;;;;15.57;100.00;96814.09;5099262;28;20068;-50
2022/10/30 01:41:01;;;;;;;3.45;2.78;;;;;;;16.00;100.00;96805.91;5099896;28;20075;-45
2022/10/30 01:43:31;;;;;;;11.35;3.40;;;;;;;16.11;100.00;96808.22;5097906;28;20091;-47
2022/10/30 01:46:13;;;;;;;21.33;3.92;;;;;;;16.13;100.00;96804.38;5097846;28;20078;-44
2022/10/30 01:48:58;;;;;;;30.55;3.80;;;;;;;16.19;100.00;96807.38;5099533;28;20670;-44
2022/10/30 01:51:37;;;;;;;24.45;4.00;;;;;;;16.14;100.00;96814.03;5096935;28;20079;-46
2022/10/30 01:54:11;;;;;;;75.68;6.50;;;;;;;15.65;100.00;96816.72;5107207;28;20074;-47
2022/10/30 01:56:45;;;;;;;44.47;5.10;;;;;;;15.63;100.00;96813.44;5100653;28;20090;-43
2022/10/30 01:59:17;;;;;;;26.92;4.05;;;;;;;16.22;100.00;96810.50;5094464;28;20075;-49
2022/10/30 02:01:45;;;;;;;24.60;4.30;;;;;;;16.36;100.00;96808.97;5096023;28;20076;-46
2022/10/30 02:04:14;;;;;;;89.50;6.50;;;;;;;16.47;100.00;96813.91;5103580;28;20071;-44
2022/10/30 02:06:42;;;;;;;15.52;3.63;;;;;;;16.60;100.00;96810.69;5098620;28;20155;-49
2022/10/30 02:09:11;;;;;;;62.60;6.28;;;;;;;16.58;100.00;96804.72;5097465;28;21823;-45
2022/10/30 02:11:39;;;;;;;53.10;7.50;;;;;;;16.65;100.00;96807.50;5099999;28;20470;-45
2022/10/30 02:14:09;;;;;;;17.17;5.90;;;;;;;16.71;100.00;96809.47;5101269;28;20079;-43
2022/10/30 02:16:42;;;;;;;54.15;6.93;;;;;;;16.42;100.00;96810.94;5099886;28;20091;-45
2022/10/30 02:19:11;;;;;;;73.82;7.60;;;;;;;16.50;100.00;96818.06;5094964;28;20130;-42
2022/10/30 02:21:40;;;;;;;33.30;5.20;;;;;;;16.74;100.00;96804.66;5101326;28;20556;-42
2022/10/30 02:24:09;;;;;;;18.30;6.03;;;;;;;16.65;100.00;96810.16;5096246;28;20068;-47
2022/10/30 02:26:37;;;;;;;17.95;6.47;;;;;;;16.55;100.00;96819.22;5102805;28;20541;-45
2022/10/30 02:29:06;;;;;;;25.23;6.22;;;;;;;16.38;100.00;96812.31;5100863;28;20080;-49
2022/10/30 02:31:34;;;;;;;5.55;4.80;;;;;;;16.37;100.00;96810.63;5096464;28;20577;-46
2022/10/30 02:34:02;;;;;;;13.73;5.32;;;;;;;16.44;100.00;96805.44;5108457;28;20463;-46
2022/10/30 02:36:30;;;;;;;7.55;4.78;;;;;;;16.05;100.00;96815.03;5099301;28;20079;-45
2022/10/30 02:39:00;;;;;;;18.42;5.07;;;;;;;15.96;100.00;96807.25;5101607;28;20074;-44
2022/10/30 02:41:29;;;;;;;19.23;5.45;;;;;;;16.15;100.00;96806.88;5100136;28;20075;-46
2022/10/30 02:43:57;;;;;;;19.30;4.80;;;;;;;15.72;100.00;96808.94;5102347;28;20109;-45
2022/10/30 02:46:25;;;;;;;18.27;5.00;;;;;;;15.62;100.00;96809.13;5102397;28;20071;-45
2022/10/30 02:48:54;;;;;;;35.58;4.53;;;;;;;14.98;100.00;96801.94;5086598;28;20074;-43
2022/10/30 02:51:22;;;;;;;11.02;4.15;;;;;;;14.13;100.00;96808.09;5098243;28;20074;-44
2022/10/30 02:53:50;;;;;;;6.90;3.83;;;;;;;14.74;100.00;96808.88;5098369;28;20076;-42
2022/10/30 02:56:20;;;;;;;4.32;3.90;;;;;;;15.39;100.00;96798.31;5095887;28;20080;-49
2022/10/30 02:58:48;;;;;;;4.13;3.72;;;;;;;15.28;100.00;96805.78;5097738;28;20526;-45
2022/10/30 03:01:18;;;;;;;4.07;3.30;;;;;;;15.62;100.00;96803.81;5098477;28;20083;-44
2022/10/30 03:03:46;;;;;;;5.15;3.60;;;;;;;14.99;100.00;96803.59;5099073;28;20537;-46
2022/10/30 03:06:16;;;;;;;10.38;3.97;;;;;;;15.64;100.00;96801.78;5102553;28;20506;-46
2022/10/30 03:08:44;;;;;;;14.07;3.72;;;;;;;15.36;100.00;96806.63;5101352;28;20117;-48
2022/10/30 03:11:14;;;;;;;17.33;3.95;;;;;;;15.65;100.00;96803.44;5096135;28;20164;-46
2022/10/30 03:13:45;;;;;;;8.98;3.78;;;;;;;15.14;100.00;96796.63;5105513;28;20079;-45
2022/10/30 03:16:17;;;;;;;28.73;4.38;;;;;;;15.19;100.00;96800.47;5095636;28;20087;-45
2022/10/30 03:18:45;;;;;;;31.55;4.50;;;;;;;14.49;100.00;96799.97;5105417;28;20079;-44
2022/10/30 03:21:16;;;;;;;33.53;4.40;;;;;;;15.14;100.00;96804.59;5093917;28;20055;-43
2022/10/30 03:23:45;;;;;;;16.08;4.10;;;;;;;15.25;100.00;96801.63;5099116;28;20102;-48
2022/10/30 03:26:13;;;;;;;8.38;3.85;;;;;;;15.30;100.00;96793.16;5098037;28;20082;-45
2022/10/30 03:28:41;;;;;;;30.33;5.20;;;;;;;15.29;100.00;96796.81;5097947;28;20083;-49
2022/10/30 03:31:13;;;;;;;23.25;4.75;;;;;;;15.37;100.00;96789.66;5102535;28;20075;-49
2022/10/30 03:33:42;;;;;;;74.85;5.70;;;;;;;14.47;100.00;96794.81;5094985;28;20071;-45
2022/10/30 03:36:12;;;;;;;41.20;5.63;;;;;;;14.83;100.00;96791.09;5094469;28;20451;-45
2022/10/30 03:38:41;;;;;;;30.90;4.40;;;;;;;14.83;100.00;96781.34;5095002;28;20080;-43
2022/10/30 03:41:09;;;;;;;10.38;4.05;;;;;;;14.94;100.00;96788.16;5095758;28;20072;-46
2022/10/30 03:43:37;;;;;;;15.10;4.05;;;;;;;14.83;100.00;96788.44;5100254;28;20078;-43
2022/10/30 03:46:05;;;;;;;21.83;4.47;;;;;;;14.58;100.00;96798.19;5100777;28;20082;-42
2022/10/30 03:48:35;;;;;;;13.85;4.28;;;;;;;14.64;100.00;96809.00;5097971;28;20080;-43
2022/10/30 03:51:03;;;;;;;20.92;3.92;;;;;;;14.84;100.00;96804.25;5095237;28;20086;-46
2022/10/30 03:53:32;;;;;;;9.32;3.95;;;;;;;14.80;100.00;96802.09;5101923;28;20553;-50
2022/10/30 03:56:01;;;;;;;13.75;4.15;;;;;;;14.60;100.00;96814.78;5101099;28;20533;-46
2022/10/30 03:58:30;;;;;;;7.15;3.65;;;;;;;14.67;100.00;96813.16;5100564;28;20068;-44
2022/10/30 04:01:01;;;;;;;9.18;3.88;;;;;;;13.76;100.00;96811.00;5090335;28;20548;-49
2022/10/30 04:03:29;;;;;;;32.85;4.10;;;;;;;13.22;100.00;96811.09;5096166;28;20083;-47
2022/10/30 04:05:59;;;;;;;13.85;4.47;;;;;;;13.23;100.00;96815.41;5089741;28;20482;-48
2022/10/30 04:08:27;;;;;;;13.47;4.60;;;;;;;13.42;100.00;96803.84;5093978;28;20084;-43
2022/10/30 04:10:55;;;;;;;6.88;4.03;;;;;;;14.02;100.00;96808.38;5102029;28;20691;-45
2022/10/30 04:13:24;;;;;;;4.40;4.00;;;;;;;14.54;100.00;96808.28;5102390;28;20109;-46
2022/10/30 04:15:53;;;;;;;4.30;3.90;;;;;;;14.59;100.00;96808.66;5096042;28;20094;-46
2022/10/30 04:18:25;;;;;;;4.30;3.90;;;;;;;14.56;100.00;96803.66;5095911;28;20618;-46
2022/10/30 04:20:54;;;;;;;4.93;4.40;;;;;;;14.42;100.00;96807.75;5099600;28;20076;-47
2022/10/30 04:23:23;;;;;;;4.40;4.00;;;;;;;14.98;100.00;96793.97;5097789;28;20072;-44
2022/10/30 04:25:52;;;;;;;6.93;4.00;;;;;;;14.82;100.00;96798.25;5095876;28;20139;-49
2022/10/30 04:28:20;;;;;;;3.90;3.35;;;;;;;14.41;100.00;96802.56;5092655;28;20469;-43
2022/10/30 04:30:49;;;;;;;5.07;3.80;;;;;;;14.15;100.00;96807.94;5097741;28;20106;-44
2022/10/30 04:33:17;;;;;;;4.00;3.60;;;;;;;14.54;100.00;96796.84;5096974;28;20075;-47
2022/10/30 04:35:45;;;;;;;4.15;3.75;;;;;;;14.49;100.00;96800.78;5091331;28;20087;-44
2022/10/30 04:38:14;;;;;;;15.32;4.97;;;;;;;14.60;100.00;96805.00;5095988;28;20090;-47
2022/10/30 04:40:44;;;;;;;44.58;5.90;;;;;;;14.68;100.00;96802.38;5094194;28;20086;-46
2022/10/30 04:43:13;;;;;;;26.80;5.80;;;;;;;14.48;100.00;96804.41;5092994;28;20487;-45
2022/10/30 04:45:41;;;;;;;31.90;5.60;;;;;;;14.70;100.00;96797.72;5088810;28;20083;-45
2022/10/30 04:48:11;;;;;;;48.33;6.43;;;;;;;14.72;100.00;96794.91;5094451;28;20079;-44
2022/10/30 04:50:40;;;;;;;79.13;6.50;;;;;;;14.93;100.00;96794.44;5095897;28;20673;-44
2022/10/30 04:53:17;;;;;;;33.40;6.13;;;;;;;14.69;100.00;96798.75;5094476;28;20197;-48
2022/10/30 04:55:46;;;;;;;53.35;5.90;;;;;;;14.62;100.00;96802.19;5099208;28;20068;-42
2022/10/30 04:58:15;;;;;;;52.20;5.87;;;;;;;14.51;100.00;96791.88;5095612;28;20090;-47
2022/10/30 05:00:43;;;;;;;70.47;6.22;;;;;;;14.11;100.00;96795.97;5089813;28;20088;-46
2022/10/30 05:03:20;;;;;;;50.58;5.78;;;;;;;13.76;100.00;96797.75;5099273;28;20071;-45
2022/10/30 05:05:49;;;;;;;53.85;6.05;;;;;;;13.45;100.00;96792.09;5099559;28;20083;-45
2022/10/30 05:08:17;;;;;;;35.78;4.90;;;;;;;13.72;100.00;96789.28;5094068;28;20728;-44
2022/10/30 05:10:47;;;;;;;26.30;5.47;;;;;;;14.20;100.00;96781.75;5092885;28;20083;-46
2022/10/30 05:13:15;;;;;;;20.48;5.00;;;;;;;14.27;100.00;96787.25;5096347;28;20063;-48
2022/10/30 05:15:43;;;;;;;18.58;5.70;;;;;;;14.30;100.00;96779.81;5098464;28;20074;-49
2022/10/30 05:18:12;;;;;;;6.93;5.03;;;;;;;14.14;100.00;96785.03;5094317;28;20076;-49
2022/10/30 05:20:40;;;;;;;9.65;4.93;;;;;;;14.30;100.00;96774.50;5097285;28;20075;-46
2022/10/30 05:23:09;;;;;;;5.93;4.90;;;;;;;14.30;100.00;96781.66;5100510;28;20083;-44
2022/10/30 05:25:37;;;;;;;5.70;4.95;;;;;;;13.98;100.00;96775.22;5102515;28;20583;-48
2022/10/30 05:28:07;;;;;;;8.13;4.70;;;;;;;14.30;100.00;96774.50;5101842;28;20078;-44
2022/10/30 05:30:36;;;;;;;6.97;4.82;;;;;;;14.09;100.00;96785.53;5101732;28;20461;-48
2022/10/30 05:33:06;;;;;;;5.20;4.70;;;;;;;14.26;100.00;96770.53;5100984;28;20071;-43
2022/10/30 05:35:35;;;;;;;4.90;4.40;;;;;;;14.11;100.00;96765.00;5101333;28;20102;-45
2022/10/30 05:38:05;;;;;;;7.10;4.80;;;;;;;14.29;100.00;96772.84;5103119;28;20086;-47
2022/10/30 05:40:34;;;;;;;6.60;5.15;;;;;;;14.14;100.00;96764.69;5104593;28;20076;-46
2022/10/30 05:43:03;;;;;;;6.57;5.53;;;;;;;14.03;100.00;96764.94;5098093;28;20106;-48
2022/10/30 05:45:32;;;;;;;10.20;5.93;;;;;;;14.11;100.00;96758.84;5102786;28;20083;-46
2022/10/30 05:48:02;;;;;;;9.80;6.85;;;;;;;14.14;100.00;96753.22;5103636;28;20067;-43
2022/10/30 05:50:31;;;;;;;9.40;6.47;;;;;;;14.21;100.00;96756.88;5102589;28;20079;-46
2022/10/30 05:53:01;;;;;;;6.68;5.57;;;;;;;14.26;100.00;96759.91;5092249;28;20075;-45
2022/10/30 05:55:29;;;;;;;14.02;6.78;;;;;;;14.32;100.00;96761.09;5097979;28;20607;-43
2022/10/30 05:57:58;;;;;;;8.27;6.13;;;;;;;14.39;100.00;96756.81;5096300;28;20094;-45
2022/10/30 06:00:28;;;;;;;6.30;5.32;;;;;;;14.41;100.00;96763.59;5099444;28;20080;-50
2022/10/30 06:03:01;;;;;;;9.48;5.90;;;;;;;14.51;100.00;96765.31;5099455;28;20395;-45
2022/10/30 06:05:31;;;;;;;9.93;5.55;;;;;;;14.59;100.00;96763.53;5100132;28;20522;-46
2022/10/30 06:08:00;;;;;;;11.87;5.80;;;;;;;14.67;100.00;96766.19;5101364;28;20044;-44
2022/10/30 06:10:29;;;;;;;7.82;5.40;;;;;;;14.71;100.00;96764.06;5095923;28;20493;-45
2022/10/30 06:12:58;;;;;;;9.02;5.05;;;;;;;14.66;100.00;96761.91;5103838;28;20067;-47
2022/10/30 06:15:28;;;;;;;7.38;4.45;;;;;;;14.60;100.00;96777.63;5104621;28;20717;-43
2022/10/30 06:17:56;;;;;;;6.60;4.50;;;;;;;14.32;100.00;96780.50;5097780;28;20526;-46
2022/10/30 06:20:28;;;;;;;8.13;4.32;;;;;;;14.16;100.00;96783.06;5098451;28;20075;-48
2022/10/30 06:22:57;;;;;;;7.53;5.13;;;;;;;14.35;100.00;96793.44;5097716;28;20087;-44
2022/10/30 06:25:26;;;;;;;10.82;5.30;;;;;;;14.42;100.00;96783.84;5099292;28;20080;-42
2022/10/30 06:27:54;;;;;;;6.78;4.70;;;;;;;14.73;100.00;96780.66;5099299;28;20495;-48
2022/10/30 06:30:22;;;;;;;9.23;4.95;;;;;;;14.85;100.00;96781.16;5097678;28;20832;-47
2022/10/30 06:32:56;;;;;;;14.55;5.28;;;;;;;15.17;100.00;96785.69;5099284;28;20083;-42
2022/10/30 06:35:25;;;;;;;6.82;4.45;;;;;;;15.33;100.00;96784.88;5097379;28;20071;-46
2022/10/30 06:37:55;;;;;;;22.42;15.65;;;;;;;15.65;100.00;96781.34;5102305;28;20075;-50
2022/10/30 06:40:23;;;;;;;12.45;7.32;;;;;;;15.77;100.00;96776.56;5099680;28;20458;-44
2022/10/30 06:42:53;;;;;;;12.85;6.40;;;;;;;15.90;100.00;96767.03;5103518;28;20457;-50
2022/10/30 06:45:23;;;;;;;10.88;6.10;;;;;;;16.08;100.00;96766.81;5098869;28;20083;-47
2022/10/30 06:47:51;;;;;;;8.10;4.97;;;;;;;16.32;100.00;96767.75;5094517;28;20572;-50
2022/10/30 06:50:21;;;;;;;10.15;5.50;;;;;;;16.54;100.00;96766.13;5100214;28;20079;-48
2022/10/30 06:52:49;;;;;;;14.00;4.82;;;;;;;16.70;100.00;96762.56;5095237;28;20067;-47
2022/10/30 06:55:19;;;;;;;7.30;5.20;;;;;;;16.94;100.00;96764.28;5100176;28;20125;-45
2022/10/30 06:57:53;;;;;;;8.18;5.00;;;;;;;17.12;100.00;96762.13;5104710;28;20079;-44
2022/10/30 07:00:21;;;;;;;7.00;4.43;;;;;;;17.19;100.00;96764.91;5096983;28;20087;-45
2022/10/30 07:02:57;;;;;;;8.63;5.03;;;;;;;17.18;100.00;96761.41;5101261;28;20518;-51
2022/10/30 07:05:26;;;;;;;10.57;5.65;;;;;;;17.40;100.00;96766.91;5096123;28;20489;-48
2022/10/30 07:07:56;;;;;;;11.52;5.50;;;;;;;17.41;100.00;96765.88;5099364;28;20354;-45
2022/10/30 07:10:26;;;;;;;12.70;6.03;;;;;;;17.64;100.00;96765.84;5101558;28;20529;-47
2022/10/30 07:12:55;;;;;;;13.40;5.88;;;;;;;17.44;100.00;96762.88;5097488;28;20094;-43
2022/10/30 07:15:24;;;;;;;13.98;5.90;;;;;;;17.37;100.00;96769.94;5104080;28;20513;-44
2022/10/30 07:17:54;;;;;;;11.75;5.93;;;;;;;17.82;100.00;96769.03;5102547;28;20071;-43
2022/10/30 07:20:23;;;;;;;;;;;;;;;17.90;100.00;96774.31;5103501;28;20079;-45
2022/10/30 07:22:51;;;;;;;8.68;5.55;;;;;;;18.03;100.00;96785.19;5099332;28;19971;-46
2022/10/30 07:25:20;;;;;;;9.07;5.20;;;;;;;18.23;100.00;96785.44;5097953;28;20514;-49
2022/10/30 07:27:50;;;;;;;14.30;5.97;;;;;;;18.32;100.00;96783.50;5099109;28;20549;-46
2022/10/30 07:30:20;;;;;;;12.18;6.15;;;;;;;18.49;100.00;96784.97;5099453;28;20561;-44
2022/10/30 07:32:57;;;;;;;10.32;6.00;;;;;;;18.73;100.00;96786.53;5096036;28;20448;-48
2022/10/30 07:35:26;;;;;;;13.75;5.63;;;;;;;18.70;100.00;96794.88;5101163;28;20510;-47
2022/10/30 07:37:54;;;;;;;8.10;4.95;;;;;;;18.86;100.00;96796.53;5100162;28;20075;-43
2022/10/30 07:40:23;;;;;;;9.38;4.50;;;;;;;18.89;100.00;96800.66;5101558;28;20076;-49
2022/10/30 07:42:57;;;;;;;9.98;5.22;;;;;;;19.14;100.00;96803.81;5098478;28;20071;-49
2022/10/30 07:45:26;;;;;;;8.93;5.10;;;;;;;18.81;100.00;96806.13;5100665;28;20528;-49
2022/10/30 07:47:55;;;;;;;9.90;4.82;;;;;;;19.32;100.00;96804.22;5099000;28;20505;-48
2022/10/30 07:50:24;;;;;;;9.88;5.25;;;;;;;19.53;100.00;96797.19;5099323;28;20513;-46
2022/10/30 07:52:53;;;;;;;13.27;5.72;;;;;;;19.67;100.00;96799.00;5099249;28;20189;-43
2022/10/30 07:55:21;;;;;;;12.18;5.65;;;;;;;19.78;100.00;96803.81;5094299;28;20087;-46
2022/10/30 07:57:50;;;;;;;13.05;5.05;;;;;;;18.98;100.00;96799.53;5098336;28;20060;-44
2022/10/30 08:00:20;;;;;;;11.95;5.03;;;;;;;19.88;100.00;96798.13;5100156;28;20075;-50
2022/10/30 08:02:49;;;;;;;13.43;5.00;;;;;;;20.20;100.00;96798.53;5098004;28;20086;-45
2022/10/30 08:05:18;;;;;;;13.95;5.13;;;;;;;20.43;100.00;96809.78;5096386;28;20313;-46
2022/10/30 08:07:46;;;;;;;12.02;4.70;;;;;;;20.56;100.00;96799.19;5096123;28;20072;-49
2022/10/30 08:10:15;;;;;;;9.88;5.28;;;;;;;20.13;100.00;96798.47;5097855;28;20082;-44
2022/10/30 08:12:44;;;;;;;14.85;5.38;;;;;;;19.32;100.00;96804.22;5102013;28;20039;-43
2022/10/30 08:15:13;;;;;;;17.25;5.35;;;;;;;19.70;100.00;96808.47;5101790;28;20083;-46
2022/10/30 08:17:43;;;;;;;11.48;5.80;;;;;;;20.70;100.00;96800.06;5102349;28;20063;-42
2022/10/30 08:20:12;;;;;;;13.18;5.38;;;;;;;20.61;100.00;96802.09;5100673;28;20055;-46
2022/10/30 08:22:45;;;;;;;15.18;5.28;;;;;;;20.41;100.00;96800.31;5100999;28;20079;-44
2022/10/30 08:25:13;;;;;;;13.68;5.43;;;;;;;21.02;100.00;96793.16;5099540;28;20036;-47
2022/10/30 08:27:50;;;;;;;18.48;5.65;;;;;;;21.12;100.00;96792.78;5098421;28;20477;-45
2022/10/30 08:30:18;;;;;;;12.38;5.47;;;;;;;21.01;100.00;96793.38;5095689;28;20506;-44
2022/10/30 08:32:48;;;;;;;10.13;5.38;;;;;;;20.56;100.00;96795.69;5094162;28;20068;-48
2022/10/30 08:35:17;;;;;;;14.63;6.38;;;;;;;20.99;100.00;96793.59;5092171;28;20080;-49
2022/10/30 08:37:47;;;;;;;;;;;;;;;21.20;100.00;96795.28;5101180;28;20064;-45
2022/10/30 08:40:15;;;;;;;12.00;6.57;;;;;;;21.55;100.00;96789.78;5080630;28;19963;-44
2022/10/30 08:42:50;;;;;;;15.20;6.45;;;;;;;21.80;100.00;96795.34;5089804;28;20492;-45
2022/10/30 08:45:19;;;;;;;12.48;5.35;;;;;;;21.85;100.00;96792.03;5097127;28;20088;-46
2022/10/30 08:47:56;;;;;;;13.23;5.78;;;;;;;22.16;100.00;96796.78;5096235;28;20078;-43
2022/10/30 08:50:25;;;;;;;10.43;4.90;;;;;;;22.27;100.00;96790.78;5096911;28;20087;-45
2022/10/30 08:52:53;;;;;;;11.77;5.07;;;;;;;22.16;100.00;96794.94;5096653;28;20086;-48
2022/10/30 08:55:22;;;;;;;13.07;5.25;;;;;;;22.01;100.00;96792.44;5094159;28;20091;-44
2022/10/30 08:57:50;;;;;;;11.93;4.85;;;;;;;22.62;100.00;96785.09;5090393;28;20075;-43
2022/10/30 09:00:18;;;;;;;11.60;4.80;;;;;;;21.53;100.00;96787.28;5098932;28;20459;-45
2022/10/30 09:02:47;;;;;;;13.05;5.18;;;;;;;22.57;100.00;96788.41;5098496;28;20109;-46
2022/10/30 09:05:17;;;;;;;13.68;5.43;;;;;;;22.65;100.00;96784.66;5097364;28;20470;-45
2022/10/30 09:07:45;;;;;;;14.35;5.05;;;;;;;22.67;100.00;96785.25;5099812;28;20079;-48
2022/10/30 09:10:14;;;;;;;16.52;4.97;;;;;;;22.87;97.51;96783.31;5102631;28;20078;-48
2022/10/30 09:12:42;;;;;;;10.52;4.25;;;;;;;22.86;97.66;96780.84;5096075;28;20525;-44
2022/10/30 09:15:10;;;;;;;17.58;4.97;;;;;;;22.76;97.71;96781.31;5097685;28;20079;-47
2022/10/30 09:17:39;;;;;;;16.48;5.40;;;;;;;22.97;100.00;96777.50;5096783;28;20051;-49
2022/10/30 09:20:08;;;;;;;11.48;4.97;;;;;;;23.47;95.67;96774.94;5097837;28;20569;-46
2022/10/30 09:22:42;;;;;;;10.38;4.68;;;;;;;23.48;95.35;96781.13;5100025;28;20090;-45
2022/10/30 09:25:10;;;;;;;13.18;4.80;;;;;;;23.00;100.00;96789.72;5102182;28;20056;-45
2022/10/30 09:27:38;;;;;;;13.18;5.05;;;;;;;22.42;100.00;96788.66;5100632;28;20071;-44
2022/10/30 09:30:08;;;;;;;12.65;4.25;;;;;;;22.71;100.00;96787.34;5093733;28;20462;-48
2022/10/30 09:32:36;;;;;;;12.20;5.10;;;;;;;23.24;100.00;96775.50;5098039;28;20083;-44
2022/10/30 09:35:05;;;;;;;14.90;4.70;;;;;;;22.40;100.00;96785.38;5096908;28;20535;-48
2022/10/30 09:37:34;;;;;;;11.45;4.40;;;;;;;23.14;94.40;96778.66;5098034;28;20083;-45
2022/10/30 09:40:05;;;;;;;10.98;3.92;;;;;;;23.74;86.37;96777.44;5069595;28;20060;-48
2022/10/30 09:42:43;;;;;;;12.80;4.32;;;;;;;24.05;81.15;96776.53;5092323;28;20071;-48
2022/10/30 09:45:24;;;;;;;15.57;4.85;;;;;;;24.21;79.82;96772.44;5094238;28;20070;-49
2022/10/30 09:48:08;;;;;;;8.57;4.22;;;;;;;23.32;86.98;96790.56;5100064;28;20086;-47
2022/10/30 09:50:42;;;;;;;13.85;4.15;;;;;;;23.95;77.41;96786.97;5102382;28;20514;-46
2022/10/30 09:53:16;;;;;;;16.42;4.38;;;;;;;24.44;72.11;96786.13;5097874;28;20074;-45
2022/10/30 09:55:51;;;;;;;10.85;3.97;;;;;;;24.65;72.22;96779.44;5102577;28;20075;-47
2022/10/30 09:58:24;;;;;;;14.88;4.68;;;;;;;24.59;70.97;96781.16;5095462;28;20067;-50
2022/10/30 10:01:01;;;;;;;17.30;4.88;;;;;;;24.88;76.18;96778.75;5101406;28;20082;-53
2022/10/30 10:03:42;;;;;;;15.55;5.03;;;;;;;24.35;73.63;96782.84;5100429;28;20090;-46
2022/10/30 10:06:13;;;;;;;16.70;5.13;;;;;;;24.87;70.16;96780.59;5104191;28;20080;-46
2022/10/30 10:08:46;;;;;;;16.38;4.90;;;;;;;25.04;68.50;96779.97;5102245;28;20075;-47
2022/10/30 10:11:18;;;;;;;12.38;4.40;;;;;;;25.32;66.22;96774.81;5099991;28;20090;-45
2022/10/30 10:13:49;;;;;;;16.15;4.25;;;;;;;25.71;67.61;96774.47;5100155;28;20083;-43
2022/10/30 10:16:19;;;;;;;12.82;4.00;;;;;;;25.84;66.34;96773.44;5096571;28;20067;-47
2022/10/30 10:18:49;;;;;;;15.52;3.85;;;;;;;25.76;68.60;96779.97;5104156;28;20110;-48
2022/10/30 10:21:24;;;;;;;12.57;4.30;;;;;;;26.14;64.49;96776.84;5096131;28;20078;-44
2022/10/30 10:23:54;;;;;;;13.88;3.80;;;;;;;26.14;63.54;96776.03;5096988;28;20086;-46
2022/10/30 10:26:45;;;;;;;10.75;3.50;;;;;;;26.51;60.71;96780.13;5104322;28;20470;-44
2022/10/30 10:29:19;;;;;;;;;;;;;;;26.25;60.06;96778.72;5100935;28;20079;-44
2022/10/30 10:31:54;;;;;;;15.90;4.25;;;;;;;26.34;60.70;96778.38;5100997;28;19970;-43
2022/10/30 10:34:38;;;;;;;13.43;3.95;;;;;;;26.49;60.26;96776.84;5099376;28;20090;-47
2022/10/30 10:37:13;;;;;;;14.40;3.97;;;;;;;26.32;59.43;96783.19;5093647;28;20079;-46
2022/10/30 10:39:55;;;;;;;13.07;3.85;;;;;;;26.71;57.25;96774.34;5099444;28;20067;-45
2022/10/30 10:42:33;;;;;;;14.30;3.58;;;;;;;26.20;62.70;96775.91;5096676;28;20083;-45
2022/10/30 10:45:17;;;;;;;12.63;3.83;;;;;;;27.02;59.03;96772.22;5097780;28;20464;-49
2022/10/30 10:48:15;;;;;;;10.23;3.85;;;;;;;27.12;57.93;96772.47;5097280;28;20079;-48
2022/10/30 10:50:48;;;;;;;13.07;3.75;;;;;;;27.02;59.50;96771.41;5098340;28;20075;-45
2022/10/30 10:53:21;;;;;;;14.35;3.90;;;;;;;26.75;61.59;96769.25;5094223;28;20083;-46
2022/10/30 10:55:53;;;;;;;11.27;3.60;;;;;;;26.21;60.16;96769.44;5099390;28;20079;-48
2022/10/30 10:58:27;;;;;;;13.75;4.07;;;;;;;26.65;58.74;96769.88;5100946;28;20071;-51
2022/10/30 11:00:56;;;;;;;12.98;3.63;;;;;;;27.08;55.70;96765.84;5093434;28;20526;-44
2022/10/30 11:03:29;;;;;;;13.38;3.95;;;;;;;27.49;52.66;96749.53;5101297;28;20601;-45
2022/10/30 11:06:00;;;;;;;11.02;4.18;;;;;;;27.54;51.89;96755.03;5098202;28;20095;-44
2022/10/30 11:08:30;;;;;;;15.27;3.90;;;;;;;26.90;54.28;96760.63;5097205;28;20071;-49
2022/10/30 11:10:59;;;;;;;13.90;3.70;;;;;;;27.03;52.43;96762.22;5095011;28;20091;-49
2022/10/30 11:13:31;;;;;;;14.13;3.83;;;;;;;27.52;49.23;96749.84;5098764;28;20075;-46
2022/10/30 11:16:06;;;;;;;10.90;3.78;;;;;;;27.84;49.46;96747.44;5097996;28;20511;-48
2022/10/30 11:18:35;;;;;;;14.15;4.05;;;;;;;27.80;48.71;96746.28;5096990;28;20359;-44
2022/10/30 11:21:07;;;;;;;14.27;4.05;;;;;;;28.04;49.37;96741.47;5103964;28;20078;-53
2022/10/30 11:23:40;;;;;;;16.15;3.55;;;;;;;28.33;49.88;96744.91;5098064;28;20106;-50
2022/10/30 11:26:27;;;;;;;9.93;4.05;;;;;;;28.28;52.04;96750.22;5100322;28;20517;-42
2022/10/30 11:28:59;;;;;;;12.98;4.05;;;;;;;28.29;52.17;96742.94;5099961;28;20677;-43
2022/10/30 11:31:33;;;;;;;11.73;3.58;;;;;;;27.98;54.42;96734.38;5098312;28;20080;-45
2022/10/30 11:34:20;;;;;;;14.65;4.25;;;;;;;28.35;49.87;96731.88;5096314;28;20320;-47
2022/10/30 11:36:50;;;;;;;14.00;4.18;;;;;;;28.24;50.82;96734.72;5094586;28;20099;-45